Lobachsville, Pennsylvania
Current Conditions -  °F | °C
As of 4:54 AM on Tuesday 27 Jan 2015 (Local Time) from KRDG Reporting Station
Overcast Overcast  
Wind Chill: 17°   Ceiling: 8000
Heat Index: 27°   Visibility: 10mi
Dew Point: 17°   Wind: 12mph
Humidity: 66%   Direction: 340°NNW
Pressure: 29.73"   Gusts: NA
Location:  40.3836°N, 75.7884°W
Report Text: KRDG 270954Z 34010KT 10SM FEW036 BKN080 OVC095 M03/M08 A2973 RMK AO2 SLP075 T10281083
Loading
Personal Weather Stations






























Interactive Weather Map New forecast layout! Learn more

10-Day Weather Forecast

Advertisements
Track Severe Weather on mobile